createdAt,value
2017-03-26T00:00:24.445Z,37.75
2017-03-26T00:01:24.478Z,37.73
2017-03-26T00:02:24.196Z,38.02
2017-03-26T00:03:24.528Z,37.85
2017-03-26T00:04:24.245Z,37.75
2017-03-26T00:05:24.585Z,37.75
2017-03-26T00:06:24.614Z,37.73
2017-03-26T00:07:24.639Z,38.43
2017-03-26T00:08:24.354Z,37.85
2017-03-26T00:09:24.388Z,38.41
2017-03-26T00:10:24.726Z,38.23
2017-03-26T00:11:24.758Z,38.62
2017-03-26T00:12:24.472Z,38.41
2017-03-26T00:13:24.497Z,38.41
2017-03-26T00:14:24.833Z,38.51
2017-03-26T00:15:24.868Z,38.51
2017-03-26T00:16:24.894Z,38.31
2017-03-26T00:17:24.918Z,38.41
2017-03-26T00:18:24.948Z,38.51
2017-03-26T00:19:24.972Z,38.41
2017-03-26T00:20:25.000Z,38.7
2017-03-26T00:21:25.023Z,38.41
2017-03-26T00:22:25.053Z,38.6
2017-03-26T00:23:25.087Z,38.99
2017-03-26T00:24:25.111Z,38.89
2017-03-26T00:25:24.831Z,39.09
2017-03-26T00:26:25.168Z,38.99
2017-03-26T00:27:25.197Z,38.79
2017-03-26T00:28:24.917Z,38.79
2017-03-26T00:29:24.936Z,38.99
2017-03-26T00:30:25.015Z,38.79
2017-03-26T00:31:25.309Z,38.7
2017-03-26T00:32:25.049Z,38.79
2017-03-26T00:33:25.363Z,38.89
2017-03-26T00:34:25.386Z,38.89
2017-03-26T00:35:25.425Z,38.89
2017-03-26T00:36:25.445Z,38.79
2017-03-26T00:37:25.474Z,38.51
2017-03-26T00:38:25.508Z,38.41
2017-03-26T00:39:25.528Z,38.51
2017-03-26T00:40:25.560Z,38.51
2017-03-26T00:41:25.585Z,38.6
2017-03-26T00:42:25.618Z,38.79
2017-03-26T00:43:25.639Z,38.7
2017-03-26T00:44:25.672Z,38.6
2017-03-26T00:45:25.700Z,38.7
2017-03-26T00:46:25.723Z,39.28
2017-03-26T00:47:25.749Z,39.28
2017-03-26T00:48:25.463Z,39.37
2017-03-26T00:49:25.491Z,39.09
2017-03-26T00:50:25.835Z,38.6
2017-03-26T00:51:25.861Z,38.79
2017-03-26T00:52:25.894Z,38.99
2017-03-26T00:53:25.916Z,38.99
2017-03-26T00:54:25.627Z,38.7
2017-03-26T00:55:25.971Z,38.99
2017-03-26T00:56:25.995Z,38.41
2017-03-26T00:57:25.709Z,38.51
2017-03-26T00:58:26.122Z,38.6
2017-03-26T00:59:26.078Z,38.51
2017-03-26T01:00:25.803Z,38.89
2017-03-26T01:01:26.140Z,38.41
2017-03-26T01:02:26.157Z,38.51
2017-03-26T01:03:26.193Z,38.51
2017-03-26T01:04:26.231Z,38.99
2017-03-26T01:05:26.238Z,38.79
2017-03-26T01:06:26.271Z,38.99
2017-03-26T01:07:26.304Z,38.89
2017-03-26T01:08:26.329Z,38.78
2017-03-26T01:09:26.362Z,38.89
2017-03-26T01:10:26.074Z,38.7
2017-03-26T01:11:26.415Z,38.79
2017-03-26T01:12:26.440Z,38.79
2017-03-26T01:13:26.161Z,38.89
2017-03-26T01:14:26.494Z,38.79
2017-03-26T01:15:26.522Z,38.99
2017-03-26T01:16:26.244Z,38.99
2017-03-26T01:17:26.576Z,38.78
2017-03-26T01:18:26.610Z,38.99
2017-03-26T01:19:26.634Z,38.87
2017-03-26T01:20:26.350Z,38.99
2017-03-26T01:21:26.695Z,38.97
2017-03-26T01:22:26.404Z,38.97
2017-03-26T01:23:26.746Z,38.1
2017-03-26T01:24:26.461Z,38.58
2017-03-26T01:25:26.798Z,38.79
2017-03-26T01:26:26.827Z,38.97
2017-03-26T01:27:26.858Z,38.49
2017-03-26T01:28:26.884Z,38.49
2017-03-26T01:29:26.909Z,38.49
2017-03-26T01:30:26.938Z,38.39
2017-03-26T01:31:26.966Z,38.01
2017-03-26T01:32:26.994Z,38.49
2017-03-26T01:33:26.709Z,38.49
2017-03-26T01:34:27.043Z,38.39
2017-03-26T01:35:27.078Z,38.49
2017-03-26T01:36:27.103Z,38.49
2017-03-26T01:37:27.132Z,38.1
2017-03-26T01:38:27.161Z,38.39
2017-03-26T01:39:27.191Z,38.49
2017-03-26T01:40:27.215Z,38.39
2017-03-26T01:41:27.243Z,38.49
2017-03-26T01:42:27.266Z,38.49
2017-03-26T01:43:26.985Z,38.39
2017-03-26T01:44:27.017Z,38.49
2017-03-26T01:45:27.349Z,38.49
2017-03-26T01:46:27.377Z,38.39
2017-03-26T01:47:27.373Z,38.49
2017-03-26T01:48:27.430Z,38.97
2017-03-26T01:49:27.460Z,38.97
2017-03-26T01:50:27.489Z,38.68
2017-03-26T01:51:27.519Z,38.87
2017-03-26T01:52:27.792Z,38.78
2017-03-26T01:53:27.576Z,38.87
2017-03-26T01:54:27.612Z,38.97
2017-03-26T01:55:27.624Z,38.87
2017-03-26T01:56:27.653Z,38.78
2017-03-26T01:57:27.930Z,39.06
2017-03-26T01:58:27.706Z,38.78
2017-03-26T01:59:27.749Z,38.78
2017-03-26T02:00:27.767Z,38.87
2017-03-26T02:01:27.794Z,39.06
2017-03-26T02:02:28.069Z,38.78
2017-03-26T02:03:27.537Z,38.87
2017-03-26T02:04:27.874Z,38.87
2017-03-26T02:05:27.899Z,38.78
2017-03-26T02:06:27.617Z,38.49
2017-03-26T02:07:28.205Z,38.97
2017-03-26T02:08:27.979Z,38.87
2017-03-26T02:09:28.010Z,38.78
2017-03-26T02:10:28.041Z,39.16
2017-03-26T02:11:27.753Z,38.87
2017-03-26T02:12:28.343Z,38.49
2017-03-26T02:13:28.118Z,38.49
2017-03-26T02:14:27.834Z,38.39
2017-03-26T02:15:28.176Z,38.39
2017-03-26T02:16:27.893Z,38.1
2017-03-26T02:17:28.477Z,38.1
2017-03-26T02:18:28.259Z,38.39
2017-03-26T02:19:27.973Z,38.1
2017-03-26T02:20:28.310Z,37.91
2017-03-26T02:21:28.027Z,37.91
2017-03-26T02:22:28.364Z,38.01
2017-03-26T02:23:28.394Z,37.91
2017-03-26T02:24:28.423Z,38.01
2017-03-26T02:25:28.446Z,37.71
2017-03-26T02:26:28.475Z,37.71
2017-03-26T02:27:28.501Z,38.2
2017-03-26T02:28:28.533Z,37.98
2017-03-26T02:29:28.565Z,37.91
2017-03-26T02:30:28.273Z,38.1
2017-03-26T02:31:28.295Z,37.91
2017-03-26T02:32:28.639Z,38.29
2017-03-26T02:33:28.352Z,38.39
2017-03-26T02:34:28.380Z,38.37
2017-03-26T02:35:28.411Z,38.28
2017-03-26T02:36:28.751Z,37.71
2017-03-26T02:37:28.467Z,38.01
2017-03-26T02:38:28.800Z,37.91
2017-03-26T02:39:28.518Z,38.1
2017-03-26T02:40:28.537Z,38.29
2017-03-26T02:41:28.887Z,37.7
2017-03-26T02:42:28.912Z,38.01
2017-03-26T02:43:28.632Z,37.98
2017-03-26T02:44:28.657Z,37.7
2017-03-26T02:45:28.995Z,37.89
2017-03-26T02:46:29.026Z,37.91
2017-03-26T02:47:29.046Z,37.89
2017-03-26T02:48:28.780Z,38.08
2017-03-26T02:49:28.792Z,37.79
2017-03-26T02:50:29.125Z,38.29
2017-03-26T02:51:28.846Z,37.98
2017-03-26T02:52:29.183Z,38.46
2017-03-26T02:53:29.215Z,38.28
2017-03-26T02:54:29.246Z,38.37
2017-03-26T02:55:29.262Z,38.08
2017-03-26T02:56:29.296Z,38.39
2017-03-26T02:57:29.329Z,38.46
2017-03-26T02:58:29.040Z,38.85
2017-03-26T02:59:29.396Z,39.04
2017-03-26T03:00:29.405Z,38.76
2017-03-26T03:01:29.429Z,38.85
2017-03-26T03:02:29.459Z,38.76
2017-03-26T03:03:29.480Z,38.76
2017-03-26T03:04:29.200Z,38.76
2017-03-26T03:05:29.228Z,38.85
2017-03-26T03:06:29.573Z,38.76
2017-03-26T03:07:29.593Z,38.85
2017-03-26T03:08:29.619Z,38.85
2017-03-26T03:09:29.653Z,38.76
2017-03-26T03:10:29.681Z,38.85
2017-03-26T03:11:29.701Z,38.56
2017-03-26T03:12:29.419Z,38.76
2017-03-26T03:13:29.754Z,38.97
2017-03-26T03:14:29.783Z,39.04
2017-03-26T03:15:29.500Z,38.66
2017-03-26T03:16:29.832Z,39.24
2017-03-26T03:17:29.867Z,38.66
2017-03-26T03:18:29.894Z,39.24
2017-03-26T03:19:29.919Z,38.95
2017-03-26T03:20:29.952Z,39.04
2017-03-26T03:21:30.008Z,38.76
2017-03-26T03:22:30.001Z,38.95
2017-03-26T03:23:30.030Z,38.76
2017-03-26T03:24:30.055Z,39.04
2017-03-26T03:25:30.087Z,39.04
2017-03-26T03:26:30.105Z,38.46
2017-03-26T03:27:29.826Z,38.95
2017-03-26T03:28:30.165Z,38.76
2017-03-26T03:29:30.190Z,39.14
2017-03-26T03:30:30.220Z,38.46
2017-03-26T03:31:30.256Z,38.66
2017-03-26T03:32:29.957Z,38.56
2017-03-26T03:33:30.303Z,38.76
2017-03-26T03:34:30.339Z,38.66
2017-03-26T03:35:30.043Z,39.14
2017-03-26T03:36:30.376Z,38.66
2017-03-26T03:37:30.408Z,38.85
2017-03-26T03:38:30.438Z,38.37
2017-03-26T03:39:30.460Z,38.66
2017-03-26T03:40:30.181Z,38.76
2017-03-26T03:41:30.208Z,38.56
2017-03-26T03:42:30.549Z,38.56
2017-03-26T03:43:30.577Z,38.46
2017-03-26T03:44:30.606Z,38.76
2017-03-26T03:45:30.318Z,38.95
2017-03-26T03:46:30.339Z,38.76
2017-03-26T03:47:30.685Z,38.56
2017-03-26T03:48:30.705Z,38.85
2017-03-26T03:49:30.740Z,38.85
2017-03-26T03:50:30.766Z,38.95
2017-03-26T03:51:30.791Z,38.95
2017-03-26T03:52:30.505Z,38.76
2017-03-26T03:53:30.849Z,39.14
2017-03-26T03:54:30.874Z,39.14
2017-03-26T03:55:30.899Z,38.95
2017-03-26T03:56:30.927Z,39.14
2017-03-26T03:57:30.951Z,38.95
2017-03-26T03:58:30.980Z,38.85
2017-03-26T03:59:31.010Z,38.95
2017-03-26T04:00:31.034Z,38.95
2017-03-26T04:01:30.750Z,38.66
2017-03-26T04:02:31.087Z,38.85
2017-03-26T04:03:31.367Z,38.95
2017-03-26T04:04:31.141Z,38.95
2017-03-26T04:05:30.857Z,39.04
2017-03-26T04:06:30.882Z,38.95
2017-03-26T04:07:31.219Z,38.95
2017-03-26T04:08:31.511Z,38.95
2017-03-26T04:09:31.288Z,38.95
2017-03-26T04:10:30.993Z,38.85
2017-03-26T04:11:31.018Z,38.76
2017-03-26T04:12:31.359Z,38.66
2017-03-26T04:13:31.328Z,38.85
2017-03-26T04:14:31.412Z,38.85
2017-03-26T04:15:31.440Z,38.95
2017-03-26T04:16:31.469Z,38.66
2017-03-26T04:17:31.495Z,38.85
2017-03-26T04:18:32.024Z,39.04
2017-03-26T04:19:31.553Z,39.04
2017-03-26T04:20:31.580Z,39.24
2017-03-26T04:21:31.291Z,39.04
2017-03-26T04:22:31.625Z,39.04
2017-03-26T04:23:31.595Z,39.22
2017-03-26T04:24:31.683Z,39.04
2017-03-26T04:25:31.394Z,39.14
2017-03-26T04:26:31.737Z,38.76
2017-03-26T04:27:31.449Z,39.24
2017-03-26T04:28:31.482Z,38.95
2017-03-26T04:29:31.827Z,38.95
2017-03-26T04:30:31.847Z,38.95
2017-03-26T04:31:31.556Z,39.62
2017-03-26T04:32:31.897Z,39.24
2017-03-26T04:33:31.938Z,39.04
2017-03-26T04:34:31.956Z,39.24
2017-03-26T04:35:31.975Z,39.61
2017-03-26T04:36:32.009Z,38.95
2017-03-26T04:37:32.033Z,38.95
2017-03-26T04:38:32.062Z,38.95
2017-03-26T04:39:31.779Z,38.95
2017-03-26T04:40:32.115Z,39.62
2017-03-26T04:41:32.143Z,39.04
2017-03-26T04:42:31.858Z,39.12
2017-03-26T04:43:32.194Z,39.53
2017-03-26T04:44:32.223Z,38.95
2017-03-26T04:45:32.255Z,39.04
2017-03-26T04:46:32.276Z,39.31
2017-03-26T04:47:31.993Z,38.93
2017-03-26T04:48:32.326Z,38.85
2017-03-26T04:49:32.356Z,39.04
2017-03-26T04:50:32.387Z,39.14
2017-03-26T04:51:32.412Z,39.22
2017-03-26T04:52:32.453Z,38.95
2017-03-26T04:53:32.465Z,38.74
2017-03-26T04:54:32.494Z,39.22
2017-03-26T04:55:32.520Z,38.93
2017-03-26T04:56:32.556Z,39.03
2017-03-26T04:57:32.576Z,39.03
2017-03-26T04:58:32.602Z,39.61
2017-03-26T04:59:32.630Z,39.51
2017-03-26T05:00:32.654Z,38.93
2017-03-26T05:01:32.683Z,39.04
2017-03-26T05:02:32.707Z,39.03
2017-03-26T05:03:32.737Z,38.74
2017-03-26T05:04:32.758Z,38.64
2017-03-26T05:05:32.791Z,38.74
2017-03-26T05:06:32.823Z,38.74
2017-03-26T05:07:32.852Z,38.93
2017-03-26T05:08:32.877Z,39.03
2017-03-26T05:09:32.588Z,38.64
2017-03-26T05:10:32.922Z,38.93
2017-03-26T05:11:32.647Z,38.64
2017-03-26T05:12:32.980Z,38.83
2017-03-26T05:13:33.005Z,39.12
2017-03-26T05:14:33.045Z,38.93
2017-03-26T05:15:33.062Z,38.74
2017-03-26T05:16:32.778Z,39.22
2017-03-26T05:17:33.111Z,39.03
2017-03-26T05:18:33.150Z,39.61
2017-03-26T05:19:33.161Z,39.41
2017-03-26T05:20:32.882Z,39.31
2017-03-26T05:21:33.231Z,39.41
2017-03-26T05:22:33.252Z,39.31
2017-03-26T05:23:33.280Z,39.51
2017-03-26T05:24:33.292Z,39.61
2017-03-26T05:25:33.334Z,39.12
2017-03-26T05:26:33.358Z,39.61
2017-03-26T05:27:33.075Z,39.61
2017-03-26T05:28:33.412Z,39.41
2017-03-26T05:29:33.437Z,39.43
2017-03-26T05:30:33.469Z,39.41
2017-03-26T05:31:33.183Z,39.12
2017-03-26T05:32:33.206Z,39.14
2017-03-26T05:33:33.542Z,39.24
2017-03-26T05:34:33.573Z,39.24
2017-03-26T05:35:33.597Z,39.43
2017-03-26T05:36:33.314Z,39.53
2017-03-26T05:37:33.338Z,39.34
2017-03-26T05:38:33.687Z,39.43
2017-03-26T05:39:33.704Z,39.34
2017-03-26T05:40:33.733Z,39.43
2017-03-26T05:41:33.759Z,39.43
2017-03-26T05:42:33.475Z,39.43
2017-03-26T05:43:33.817Z,39.53
2017-03-26T05:44:33.528Z,39.53
2017-03-26T05:45:33.563Z,39.43
2017-03-26T05:46:33.894Z,39.14
2017-03-26T05:47:33.922Z,39.43
2017-03-26T05:48:33.947Z,39.53
2017-03-26T05:49:33.976Z,39.34
2017-03-26T05:50:34.005Z,39.04
2017-03-26T05:51:34.028Z,39.14
2017-03-26T05:52:34.054Z,38.95
2017-03-26T05:53:34.086Z,38.95
2017-03-26T05:54:34.114Z,39.14
2017-03-26T05:55:34.136Z,39.14
2017-03-26T05:56:34.168Z,39.04
2017-03-26T05:57:34.190Z,39.04
2017-03-26T05:58:34.218Z,39.06
2017-03-26T05:59:34.242Z,38.78
2017-03-26T06:00:34.267Z,39.06
2017-03-26T06:01:34.302Z,38.97
2017-03-26T06:02:34.322Z,38.97
2017-03-26T06:03:34.354Z,38.97
2017-03-26T06:04:34.379Z,38.97
2017-03-26T06:05:34.097Z,38.97
2017-03-26T06:06:34.120Z,38.49
2017-03-26T06:07:34.461Z,38.97
2017-03-26T06:08:34.489Z,38.68
2017-03-26T06:09:34.202Z,38.58
2017-03-26T06:10:34.538Z,38.97
2017-03-26T06:11:34.557Z,38.87
2017-03-26T06:12:34.601Z,38.78
2017-03-26T06:13:34.315Z,38.58
2017-03-26T06:14:34.651Z,38.58
2017-03-26T06:15:34.678Z,38.97
2017-03-26T06:16:34.699Z,38.87
2017-03-26T06:17:34.753Z,39.06
2017-03-26T06:18:34.771Z,39.06
2017-03-26T06:19:34.786Z,38.49
2017-03-26T06:20:34.815Z,39.16
2017-03-26T06:21:34.839Z,39.26
2017-03-26T06:22:34.865Z,39.45
2017-03-26T06:23:34.899Z,38.97
2017-03-26T06:24:34.926Z,38.68
2017-03-26T06:25:34.945Z,38.68
2017-03-26T06:26:34.663Z,38.87
2017-03-26T06:27:34.688Z,38.87
2017-03-26T06:28:35.033Z,38.97
2017-03-26T06:29:35.051Z,38.99
2017-03-26T06:30:35.083Z,38.78
2017-03-26T06:31:34.794Z,38.97
2017-03-26T06:32:35.141Z,38.51
2017-03-26T06:33:35.176Z,38.99
2017-03-26T06:34:35.190Z,38.49
2017-03-26T06:35:35.216Z,38.39
2017-03-26T06:36:34.934Z,38.29
2017-03-26T06:37:35.272Z,38.31
2017-03-26T06:38:35.308Z,38.51
2017-03-26T06:39:35.330Z,37.93
2017-03-26T06:40:35.042Z,38.31
2017-03-26T06:41:35.379Z,38.12
2017-03-26T06:42:35.100Z,38.21
2017-03-26T06:43:35.439Z,38.12
2017-03-26T06:44:35.466Z,38.41
2017-03-26T06:45:35.226Z,38.41
2017-03-26T06:46:35.517Z,38.21
2017-03-26T06:47:35.547Z,37.93
2017-03-26T06:48:35.580Z,37.73
2017-03-26T06:49:35.290Z,38.02
2017-03-26T06:50:35.625Z,37.73
2017-03-26T06:51:35.655Z,37.93
2017-03-26T06:52:35.683Z,38.02
2017-03-26T06:53:35.708Z,37.91
2017-03-26T06:54:35.422Z,37.93
2017-03-26T06:55:35.760Z,37.83
2017-03-26T06:56:35.789Z,38.12
2017-03-26T06:57:35.823Z,37.93
2017-03-26T06:58:35.860Z,38.12
2017-03-26T06:59:35.872Z,38.12
2017-03-26T07:00:35.901Z,38.12
2017-03-26T07:01:35.925Z,37.93
2017-03-26T07:02:35.639Z,38.12
2017-03-26T07:03:35.995Z,38.12
2017-03-26T07:04:36.009Z,38.02
2017-03-26T07:05:35.716Z,38.12
2017-03-26T07:06:35.751Z,38.12
2017-03-26T07:07:35.782Z,38.02
2017-03-26T07:08:36.120Z,37.73
2017-03-26T07:09:36.396Z,37.83
2017-03-26T07:10:36.176Z,38.02
2017-03-26T07:11:36.202Z,38.02
2017-03-26T07:12:36.227Z,37.83
2017-03-26T07:13:36.252Z,37.83
2017-03-26T07:14:36.215Z,38.02
2017-03-26T07:15:35.995Z,37.93
2017-03-26T07:16:36.333Z,37.93
2017-03-26T07:17:36.359Z,37.83
2017-03-26T07:18:36.401Z,37.63
2017-03-26T07:19:36.667Z,37.45
2017-03-26T07:20:36.444Z,38.21
2017-03-26T07:21:36.161Z,37.93
2017-03-26T07:22:36.497Z,37.63
2017-03-26T07:23:36.218Z,37.93
2017-03-26T07:24:36.807Z,37.93
2017-03-26T07:25:36.584Z,38.02
2017-03-26T07:26:36.297Z,37.73
2017-03-26T07:27:36.321Z,37.73
2017-03-26T07:28:36.361Z,37.63
2017-03-26T07:29:36.633Z,37.63
2017-03-26T07:30:36.715Z,37.73
2017-03-26T07:31:36.743Z,37.15
2017-03-26T07:32:36.777Z,36.88
2017-03-26T07:33:36.798Z,36.13
2017-03-26T07:34:37.105Z,34.79
2017-03-26T07:35:36.543Z,34.54
2017-03-26T07:36:36.564Z,33.12
2017-03-26T07:37:36.909Z,32.28
2017-03-26T07:38:36.938Z,31.04
2017-03-26T07:39:36.902Z,30.76
2017-03-26T07:40:36.682Z,30.69
2017-03-26T07:41:37.025Z,29.83
2017-03-26T07:42:36.745Z,28.68
2017-03-26T07:43:37.081Z,28.3
2017-03-26T07:44:37.352Z,28.13
2017-03-26T07:45:37.134Z,27.83
2017-03-26T07:46:37.164Z,27.16
2017-03-26T07:47:37.185Z,26.79
2017-03-26T07:48:37.222Z,26.5
2017-03-26T07:49:37.192Z,26.4
2017-03-26T07:50:37.288Z,26.61
2017-03-26T07:51:36.993Z,26.79
2017-03-26T07:52:37.021Z,27.06
2017-03-26T07:53:37.366Z,27.83
2017-03-26T07:54:37.645Z,28.2
2017-03-26T07:55:37.422Z,28.39
2017-03-26T07:56:37.452Z,28.76
2017-03-26T07:57:37.164Z,29.33
2017-03-26T07:58:37.513Z,29.71
2017-03-26T07:59:37.533Z,30.19
2017-03-26T08:00:37.258Z,30.76
2017-03-26T08:01:37.594Z,30.94
2017-03-26T08:02:37.623Z,30.74
2017-03-26T08:03:37.652Z,31.12
2017-03-26T08:04:37.742Z,31.41
2017-03-26T08:05:37.708Z,31.5
2017-03-26T08:06:37.735Z,31.89
2017-03-26T08:07:37.772Z,32.46
2017-03-26T08:08:37.793Z,31.87
2017-03-26T08:09:37.833Z,32.26
2017-03-26T08:10:37.854Z,32.17
2017-03-26T08:11:37.567Z,32.34
2017-03-26T08:12:37.916Z,32.64
2017-03-26T08:13:37.948Z,32.44
2017-03-26T08:14:37.969Z,32.06
2017-03-26T08:15:37.686Z,32.73
2017-03-26T08:16:37.711Z,32.92
2017-03-26T08:17:38.055Z,33.2
2017-03-26T08:18:38.088Z,33.2
2017-03-26T08:19:38.112Z,32.91
2017-03-26T08:20:38.141Z,33.29
2017-03-26T08:21:38.169Z,33.39
2017-03-26T08:22:38.199Z,33.59
2017-03-26T08:23:38.232Z,33.69
2017-03-26T08:24:38.257Z,33.97
2017-03-26T08:25:38.282Z,33.97
2017-03-26T08:26:37.997Z,34.54
2017-03-26T08:27:38.343Z,34.05
2017-03-26T08:28:38.368Z,34.44
2017-03-26T08:29:38.452Z,34.25
2017-03-26T08:30:38.424Z,34.44
2017-03-26T08:31:38.453Z,34.25
2017-03-26T08:32:38.482Z,34.34
2017-03-26T08:33:38.514Z,34.34
2017-03-26T08:34:38.536Z,34.44
2017-03-26T08:35:38.556Z,33.76
2017-03-26T08:36:38.593Z,34.05
2017-03-26T08:37:38.628Z,34.15
2017-03-26T08:38:38.655Z,34.63
2017-03-26T08:39:38.676Z,34.05
2017-03-26T08:40:38.700Z,34.04
2017-03-26T08:41:38.425Z,34.42
2017-03-26T08:42:38.762Z,35
2017-03-26T08:43:38.791Z,35
2017-03-26T08:44:38.825Z,34.71
2017-03-26T08:45:38.850Z,34.71
2017-03-26T08:46:38.877Z,35.29
2017-03-26T08:47:38.913Z,35.1
2017-03-26T08:48:38.941Z,34.04
2017-03-26T08:49:38.972Z,34.33
2017-03-26T08:50:38.988Z,34.13
2017-03-26T08:51:39.017Z,34.23
2017-03-26T08:52:38.734Z,33.45
2017-03-26T08:53:39.074Z,33.07
2017-03-26T08:54:39.098Z,33.75
2017-03-26T08:55:39.133Z,34.04
2017-03-26T08:56:39.156Z,34.02
2017-03-26T08:57:39.199Z,34.41
2017-03-26T08:58:38.906Z,34.02
2017-03-26T08:59:38.922Z,33.73
2017-03-26T09:00:39.271Z,33.26
2017-03-26T09:01:39.299Z,33.07
2017-03-26T09:02:39.326Z,32.87
2017-03-26T09:03:39.361Z,32.87
2017-03-26T09:04:39.376Z,31.83
2017-03-26T09:05:39.467Z,31.16
2017-03-26T09:06:39.436Z,29.92
2017-03-26T09:07:39.468Z,29.44
2017-03-26T09:08:39.500Z,28.58
2017-03-26T09:09:39.521Z,27.51
2017-03-26T09:10:39.806Z,27.24
2017-03-26T09:11:39.575Z,25.98
2017-03-26T09:12:39.608Z,25.49
2017-03-26T09:13:39.641Z,25.21
2017-03-26T09:14:39.666Z,25.02
2017-03-26T09:15:39.944Z,25.51
2017-03-26T09:16:39.720Z,25.12
2017-03-26T09:17:39.436Z,25.12
2017-03-26T09:18:39.781Z,25.02
2017-03-26T09:19:39.794Z,25.21
2017-03-26T09:20:40.082Z,25.01
2017-03-26T09:21:39.862Z,25.1
2017-03-26T09:22:39.572Z,25.4
2017-03-26T09:23:39.917Z,25.48
2017-03-26T09:24:39.637Z,25.48
2017-03-26T09:25:40.229Z,26.06
2017-03-26T09:26:40.003Z,26.34
2017-03-26T09:27:40.032Z,26.82
2017-03-26T09:28:39.750Z,26.92
2017-03-26T09:29:40.086Z,27.11
2017-03-26T09:30:40.371Z,27.29
2017-03-26T09:31:40.142Z,27.29
2017-03-26T09:32:40.175Z,27.29
2017-03-26T09:33:40.197Z,27.29
2017-03-26T09:34:40.229Z,27.1
2017-03-26T09:35:40.504Z,27.2
2017-03-26T09:36:40.282Z,27.67
2017-03-26T09:37:39.998Z,27.67
2017-03-26T09:38:40.332Z,28.05
2017-03-26T09:39:40.367Z,27.96
2017-03-26T09:40:40.649Z,27.57
2017-03-26T09:41:40.443Z,27.37
2017-03-26T09:42:40.454Z,27.37
2017-03-26T09:43:40.476Z,27.76
2017-03-26T09:44:40.201Z,27.67
2017-03-26T09:45:40.541Z,27.86
2017-03-26T09:46:40.566Z,28.43
2017-03-26T09:47:40.595Z,28.34
2017-03-26T09:48:40.614Z,28.25
2017-03-26T09:49:40.341Z,28.44
2017-03-26T09:50:40.684Z,28.23
2017-03-26T09:51:40.717Z,28.25
2017-03-26T09:52:40.734Z,28.14
2017-03-26T09:53:40.768Z,28.64
2017-03-26T09:54:40.793Z,28.81
2017-03-26T09:55:40.820Z,28.91
2017-03-26T09:56:40.845Z,29.49
2017-03-26T09:57:40.877Z,29.2
2017-03-26T09:58:40.947Z,29.2
2017-03-26T09:59:40.927Z,29.22
2017-03-26T10:00:40.965Z,29.2
2017-03-26T10:01:40.984Z,29.41
2017-03-26T10:02:40.707Z,29.2
2017-03-26T10:03:41.056Z,29.5
2017-03-26T10:04:41.074Z,28.81
2017-03-26T10:05:41.104Z,28.72
2017-03-26T10:06:41.134Z,29.12
2017-03-26T10:07:41.161Z,28.91
2017-03-26T10:08:40.880Z,29.39
2017-03-26T10:09:41.228Z,29.49
2017-03-26T10:10:41.244Z,29.49
2017-03-26T10:11:41.276Z,28.72
2017-03-26T10:12:41.309Z,28.81
2017-03-26T10:13:41.335Z,28.91
2017-03-26T10:14:41.360Z,29.2
2017-03-26T10:15:41.389Z,28.72
2017-03-26T10:16:41.418Z,28.64
2017-03-26T10:17:41.445Z,28.54
2017-03-26T10:18:41.474Z,29.41
2017-03-26T10:19:41.498Z,28.33
2017-03-26T10:20:41.532Z,28.04
2017-03-26T10:21:41.557Z,27.57
2017-03-26T10:22:54.005Z,27.37
2017-03-26T10:23:41.305Z,28.25
2017-03-26T10:24:41.643Z,28.64
2017-03-26T10:25:41.669Z,29.69
2017-03-26T10:26:41.696Z,30.46
2017-03-26T10:27:41.726Z,30.75
2017-03-26T10:28:41.754Z,32.21
2017-03-26T10:29:41.782Z,32.02
2017-03-26T10:30:41.807Z,32.41
2017-03-26T10:31:41.840Z,33.09
2017-03-26T10:32:41.877Z,33.28
2017-03-26T10:33:41.894Z,33.28
2017-03-26T10:34:41.923Z,34.05
2017-03-26T10:35:41.951Z,34.34
2017-03-26T10:36:42.008Z,31.73
2017-03-26T10:37:42.013Z,31.91
2017-03-26T10:38:42.034Z,33.75
2017-03-26T10:39:42.066Z,31.91
2017-03-26T10:40:42.091Z,31.83
2017-03-26T10:41:42.119Z,32.97
2017-03-26T10:42:42.186Z,34.52
2017-03-26T10:43:42.186Z,34.25
2017-03-26T10:44:42.214Z,35.1
2017-03-26T10:45:42.247Z,35.2
2017-03-26T10:46:42.261Z,35.1
2017-03-26T10:47:42.293Z,34.52
2017-03-26T10:48:42.333Z,34.81
2017-03-26T10:49:42.346Z,34.91
2017-03-26T10:50:42.379Z,35.1
2017-03-26T10:51:42.403Z,35
2017-03-26T10:52:42.437Z,35
2017-03-26T10:53:42.466Z,35.58
2017-03-26T10:54:42.498Z,35.58
2017-03-26T10:55:42.518Z,35.68
2017-03-26T10:56:42.236Z,34.42
2017-03-26T10:57:42.581Z,35.1
2017-03-26T10:58:42.606Z,34.42
2017-03-26T10:59:42.642Z,35.2
2017-03-26T11:00:42.661Z,35.58
2017-03-26T11:01:42.699Z,35.68
2017-03-26T11:02:42.720Z,36.26
2017-03-26T11:03:42.744Z,36.65
2017-03-26T11:04:42.779Z,36.65
2017-03-26T11:05:42.803Z,36.84
2017-03-26T11:06:42.519Z,34.42
2017-03-26T11:07:42.553Z,35.2
2017-03-26T11:08:42.894Z,36.36
2017-03-26T11:09:42.916Z,36.07
2017-03-26T11:10:42.945Z,36.07
2017-03-26T11:11:42.974Z,36.84
2017-03-26T11:12:42.692Z,37.42
2017-03-26T11:13:42.719Z,38.2
2017-03-26T11:14:42.773Z,38
2017-03-26T11:15:43.082Z,37.71
2017-03-26T11:16:43.114Z,34.13
2017-03-26T11:17:43.151Z,35.1
2017-03-26T11:18:43.185Z,34.33
2017-03-26T11:19:43.217Z,34.33
2017-03-26T11:20:43.234Z,36.16
2017-03-26T11:21:43.266Z,37.62
2017-03-26T11:22:43.291Z,37.62
2017-03-26T11:23:43.003Z,38
2017-03-26T11:24:43.357Z,37.71
2017-03-26T11:25:43.376Z,38.1
2017-03-26T11:26:43.410Z,37.9
2017-03-26T11:27:43.438Z,38.1
2017-03-26T11:28:43.463Z,38.1
2017-03-26T11:29:43.488Z,38.1
2017-03-26T11:30:43.524Z,37.9
2017-03-26T11:31:43.797Z,37.81
2017-03-26T11:32:43.580Z,38.2
2017-03-26T11:33:43.608Z,38.1
2017-03-26T11:34:43.639Z,38.21
2017-03-26T11:35:43.665Z,38
2017-03-26T11:36:43.946Z,37.63
2017-03-26T11:37:43.725Z,38.02
2017-03-26T11:38:43.751Z,38.12
2017-03-26T11:39:43.779Z,38.12
2017-03-26T11:40:43.809Z,38.12
2017-03-26T11:41:44.083Z,37.82
2017-03-26T11:42:43.862Z,38.02
2017-03-26T11:43:43.896Z,37.54
2017-03-26T11:44:43.611Z,37.73
2017-03-26T11:45:43.952Z,37.34
2017-03-26T11:46:44.230Z,37.24
2017-03-26T11:47:44.008Z,36.58
2017-03-26T11:48:44.035Z,36.78
2017-03-26T11:49:43.756Z,36.68
2017-03-26T11:50:44.097Z,36.78
2017-03-26T11:51:44.377Z,36.88
2017-03-26T11:52:44.155Z,34.65
2017-03-26T11:53:44.187Z,35.54
2017-03-26T11:54:43.900Z,35.93
2017-03-26T11:55:44.236Z,35.73
2017-03-26T11:56:44.520Z,35.75
2017-03-26T11:57:44.294Z,35.75
2017-03-26T11:58:44.330Z,35.56
2017-03-26T11:59:44.367Z,35.09
2017-03-26T12:00:44.399Z,35.28
2017-03-26T12:01:44.358Z,34.81
2017-03-26T12:02:44.133Z,34.91
2017-03-26T12:03:44.166Z,34.14
2017-03-26T12:04:44.509Z,33.57
2017-03-26T12:05:44.540Z,33.67
2017-03-26T12:06:44.512Z,32.42
2017-03-26T12:07:44.605Z,33.39
2017-03-26T12:08:44.635Z,33.02
2017-03-26T12:09:44.351Z,32.15
2017-03-26T12:10:44.691Z,32.92
2017-03-26T12:11:44.976Z,32.65
2017-03-26T12:12:44.754Z,32.45
2017-03-26T12:13:44.794Z,32.35
2017-03-26T12:14:44.506Z,32.18
2017-03-26T12:15:44.846Z,31.5
2017-03-26T12:16:45.127Z,31.21
2017-03-26T12:17:44.909Z,31.03
2017-03-26T12:18:44.932Z,31.03
2017-03-26T12:19:44.659Z,30.83
2017-03-26T12:20:45.004Z,30.64
2017-03-26T12:21:44.970Z,30.75
2017-03-26T12:22:45.070Z,30.65
2017-03-26T12:23:45.101Z,30.65
2017-03-26T12:24:45.122Z,30.96
2017-03-26T12:25:45.158Z,30.38
2017-03-26T12:26:45.130Z,30.08
2017-03-26T12:27:44.918Z,30
2017-03-26T12:28:44.948Z,30.1
2017-03-26T12:29:45.285Z,30.39
2017-03-26T12:30:45.318Z,29.53
2017-03-26T12:31:45.603Z,30.11
2017-03-26T12:32:45.073Z,29.82
2017-03-26T12:33:45.420Z,29.92
2017-03-26T12:34:45.446Z,29.54
2017-03-26T12:35:45.477Z,29.06
2017-03-26T12:36:45.767Z,29.75
2017-03-26T12:37:45.232Z,29.46
2017-03-26T12:38:45.576Z,29.75
2017-03-26T12:39:45.294Z,29.07
2017-03-26T12:40:45.646Z,28.49
2017-03-26T12:41:45.926Z,28.5
2017-03-26T12:42:45.715Z,29.08
2017-03-26T12:43:45.743Z,29.67
2017-03-26T12:44:45.778Z,28.89
2017-03-26T12:45:45.805Z,28.71
2017-03-26T12:46:46.082Z,28.59
2017-03-26T12:47:45.871Z,28.81
2017-03-26T12:48:45.585Z,28.61
2017-03-26T12:49:45.938Z,28.61
2017-03-26T12:50:45.965Z,27.93
2017-03-26T12:51:46.258Z,28.22
2017-03-26T12:52:46.027Z,28.72
2017-03-26T12:53:46.064Z,27.94
2017-03-26T12:54:46.103Z,28.13
2017-03-26T12:55:46.125Z,28.23